Time,TemperatureF,DewpointF,PressureIn,WindDirection,WindDirectionDegrees,WindSpeedMPH,WindSpeedGustMPH,Humidity,HourlyPrecipIn,Conditions,Clouds,dailyrainin,SoftwareType,DateUTC
2013-03-04 00:00:00,22.0,17.6,30.09,NNW,336,2.0,4.0,83,0.00,,---,0.00,VWS V14.01,2013-03-04 05:00:00,
2013-03-04 00:05:00,22.1,17.7,30.09,NNW,336,4.0,7.0,83,0.00,,---,0.00,VWS V14.01,2013-03-04 05:05:00,
2013-03-04 00:10:00,22.1,17.7,30.09,NNW,336,1.0,7.0,83,0.00,,---,0.00,VWS V14.01,2013-03-04 05:10:00,
2013-03-04 00:15:00,22.1,18.0,30.09,NNW,336,4.0,7.0,84,0.00,,---,0.00,VWS V14.01,2013-03-04 05:15:00,
2013-03-04 00:20:00,22.2,17.8,30.09,NNW,336,0.0,7.0,83,0.00,,---,0.00,VWS V14.01,2013-03-04 05:20:00,
2013-03-04 00:25:00,22.2,17.8,30.09,NNW,336,1.0,7.0,83,0.00,,---,0.00,VWS V14.01,2013-03-04 05:25:00,
2013-03-04 00:30:00,22.2,17.5,30.09,NNW,336,1.0,4.0,82,0.00,,---,0.00,VWS V14.01,2013-03-04 05:30:00,
2013-03-04 00:35:00,22.3,17.6,30.09,NNW,336,1.0,4.0,82,0.00,,---,0.00,VWS V14.01,2013-03-04 05:35:00,
2013-03-04 00:40:00,22.3,17.6,30.09,NNW,336,1.0,5.0,82,0.00,,---,0.00,VWS V14.01,2013-03-04 05:40:00,
2013-03-04 00:45:00,22.3,17.4,30.09,NNW,336,1.0,5.0,81,0.00,,---,0.00,VWS V14.01,2013-03-04 05:45:00,
2013-03-04 00:50:00,22.3,17.6,30.09,NNW,336,0.0,5.0,82,0.00,,---,0.00,VWS V14.01,2013-03-04 05:50:00,
2013-03-04 00:55:00,22.3,17.6,30.09,NNW,336,0.0,5.0,82,0.00,,---,0.00,VWS V14.01,2013-03-04 05:55:00,
2013-03-04 01:00:00,22.3,17.4,30.09,NNW,336,4.0,4.0,81,0.00,,---,0.00,VWS V14.01,2013-03-04 06:00:00,
2013-03-04 01:05:00,22.2,17.3,30.10,NNW,336,1.0,4.0,81,0.00,,---,0.00,VWS V14.01,2013-03-04 06:05:00,
2013-03-04 01:10:00,22.3,17.4,30.10,NNW,336,0.0,4.0,81,0.00,,---,0.00,VWS V14.01,2013-03-04 06:10:00,
2013-03-04 01:15:00,22.3,17.4,30.10,NNW,336,0.0,4.0,81,0.00,,---,0.00,VWS V14.01,2013-03-04 06:15:00,
2013-03-04 01:20:00,22.3,17.4,30.10,NNW,336,1.0,4.0,81,0.00,,---,0.00,VWS V14.01,2013-03-04 06:20:00,
2013-03-04 01:25:00,22.3,17.1,30.10,NNW,336,1.0,4.0,80,0.00,,---,0.00,VWS V14.01,2013-03-04 06:25:00,
2013-03-04 01:30:00,22.4,17.2,30.10,NNW,336,0.0,1.0,80,0.00,,---,0.00,VWS V14.01,2013-03-04 06:30:00,
2013-03-04 01:35:00,22.4,17.2,30.10,NNW,336,0.0,2.0,80,0.00,,---,0.00,VWS V14.01,2013-03-04 06:35:00,
2013-03-04 01:40:00,22.4,16.9,30.10,NNW,336,0.0,2.0,79,0.00,,---,0.00,VWS V14.01,2013-03-04 06:40:00,
2013-03-04 01:45:00,22.5,17.0,30.10,NNW,336,0.0,2.0,79,0.00,,---,0.00,VWS V14.01,2013-03-04 06:45:00,
2013-03-04 01:50:00,22.5,17.0,30.10,NNW,336,0.0,2.0,79,0.00,,---,0.00,VWS V14.01,2013-03-04 06:50:00,
2013-03-04 01:55:00,22.5,17.0,30.10,NNW,336,0.0,2.0,79,0.00,,---,0.00,VWS V14.01,2013-03-04 06:55:00,
2013-03-04 02:00:00,22.5,17.0,30.10,NNW,336,0.0,1.0,79,0.00,,---,0.00,VWS V14.01,2013-03-04 07:00:00,
2013-03-04 02:06:00,22.5,17.0,30.10,NNW,336,0.0,1.0,79,0.00,,---,0.00,VWS V14.01,2013-03-04 07:06:00,
2013-03-04 02:11:00,22.5,17.0,30.10,NNW,336,0.0,1.0,79,0.00,,---,0.00,VWS V14.01,2013-03-04 07:11:00,
2013-03-04 02:16:00,22.5,17.0,30.11,NNW,336,0.0,1.0,79,0.00,,---,0.00,VWS V14.01,2013-03-04 07:16:00,
2013-03-04 02:21:00,22.5,17.0,30.11,NNW,336,0.0,1.0,79,0.00,,---,0.00,VWS V14.01,2013-03-04 07:21:00,
2013-03-04 02:26:00,22.6,17.1,30.11,NNW,336,0.0,1.0,79,0.00,,---,0.00,VWS V14.01,2013-03-04 07:26:00,
2013-03-04 02:30:00,22.6,17.7,30.11,NNW,336,0.0,1.0,81,0.00,,---,0.00,VWS V14.01,2013-03-04 07:30:00,
2013-03-04 02:31:00,22.6,17.1,30.11,NNW,336,0.0,1.0,79,0.00,,---,0.00,VWS V14.01,2013-03-04 07:31:00,
2013-03-04 02:36:00,22.6,17.4,30.11,NNW,336,0.0,1.0,80,0.00,,---,0.00,VWS V14.01,2013-03-04 07:36:00,
2013-03-04 02:41:00,22.6,17.1,30.11,NNW,336,0.0,1.0,79,0.00,,---,0.00,VWS V14.01,2013-03-04 07:41:00,
2013-03-04 02:46:00,22.6,17.4,30.11,NNW,336,0.0,2.0,80,0.00,,---,0.00,VWS V14.01,2013-03-04 07:46:00,
2013-03-04 02:51:00,22.6,17.4,30.11,NNW,336,0.0,2.0,80,0.00,,---,0.00,VWS V14.01,2013-03-04 07:51:00,
2013-03-04 02:56:00,22.7,17.2,30.11,NNW,336,0.0,2.0,79,0.00,,---,0.00,VWS V14.01,2013-03-04 07:56:00,
2013-03-04 03:00:00,21.9,17.5,30.11,NNW,336,0.0,5.0,83,0.00,,---,0.00,VWS V14.01,2013-03-04 08:00:00,
2013-03-04 03:01:00,22.7,17.2,30.11,NNW,336,0.0,0.0,79,0.00,,---,0.00,VWS V14.01,2013-03-04 08:01:00,
2013-03-04 03:06:00,22.7,17.5,30.11,NNW,336,0.0,0.0,80,0.00,,---,0.00,VWS V14.01,2013-03-04 08:06:00,
2013-03-04 03:11:00,22.7,17.5,30.11,NNW,336,0.0,1.0,80,0.00,,---,0.00,VWS V14.01,2013-03-04 08:11:00,
2013-03-04 03:16:00,22.7,17.5,30.11,NNW,336,0.0,1.0,80,0.00,,---,0.00,VWS V14.01,2013-03-04 08:16:00,
2013-03-04 03:21:00,22.6,17.7,30.11,NNW,336,0.0,1.0,81,0.00,,---,0.00,VWS V14.01,2013-03-04 08:21:00,
2013-03-04 03:26:00,22.6,17.7,30.11,NNW,336,0.0,1.0,81,0.00,,---,0.00,VWS V14.01,2013-03-04 08:26:00,
2013-03-04 03:30:00,21.3,17.2,30.11,NNW,336,0.0,2.0,84,0.00,,---,0.00,VWS V14.01,2013-03-04 08:30:00,
2013-03-04 03:31:00,22.5,17.9,30.11,NNW,336,1.0,1.0,82,0.00,,---,0.00,VWS V14.01,2013-03-04 08:31:00,
2013-03-04 03:36:00,22.5,17.9,30.11,NNW,336,0.0,1.0,82,0.00,,---,0.00,VWS V14.01,2013-03-04 08:36:00,
2013-03-04 03:41:00,22.4,18.0,30.11,NNW,336,0.0,1.0,83,0.00,,---,0.00,VWS V14.01,2013-03-04 08:41:00,
2013-03-04 03:46:00,22.2,17.8,30.11,NNW,336,0.0,5.0,83,0.00,,---,0.00,VWS V14.01,2013-03-04 08:46:00,
2013-03-04 03:51:00,22.1,17.7,30.11,NNW,336,0.0,5.0,83,0.00,,---,0.00,VWS V14.01,2013-03-04 08:51:00,
2013-03-04 03:56:00,22.0,17.6,30.11,NNW,336,0.0,5.0,83,0.00,,---,0.00,VWS V14.01,2013-03-04 08:56:00,
2013-03-04 04:00:00,21.3,17.5,30.11,NNW,336,0.0,0.0,85,0.00,,---,0.00,VWS V14.01,2013-03-04 09:00:00,
2013-03-04 04:01:00,21.9,17.5,30.11,NNW,336,0.0,0.0,83,0.00,,---,0.00,VWS V14.01,2013-03-04 09:01:00,
2013-03-04 04:06:00,21.8,17.4,30.11,NNW,336,0.0,2.0,83,0.00,,---,0.00,VWS V14.01,2013-03-04 09:06:00,
2013-03-04 04:11:00,21.6,17.2,30.11,NNW,336,0.0,2.0,83,0.00,,---,0.00,VWS V14.01,2013-03-04 09:11:00,
2013-03-04 04:16:00,21.5,17.4,30.11,NNW,336,0.0,2.0,84,0.00,,---,0.00,VWS V14.01,2013-03-04 09:16:00,
2013-03-04 04:21:00,21.4,17.3,30.11,NNW,336,0.0,2.0,84,0.00,,---,0.00,VWS V14.01,2013-03-04 09:21:00,
2013-03-04 04:26:00,21.3,17.2,30.11,NNW,336,0.0,2.0,84,0.00,,---,0.00,VWS V14.01,2013-03-04 09:26:00,
2013-03-04 04:30:00,20.4,16.9,30.12,NNW,336,0.0,0.0,86,0.00,,---,0.00,VWS V14.01,2013-03-04 09:30:00,
2013-03-04 04:31:00,21.3,17.2,30.11,NNW,336,0.0,0.0,84,0.00,,---,0.00,VWS V14.01,2013-03-04 09:31:00,
2013-03-04 04:36:00,21.3,17.5,30.11,NNW,336,0.0,0.0,85,0.00,,---,0.00,VWS V14.01,2013-03-04 09:36:00,
2013-03-04 04:41:00,21.3,17.5,30.11,NNW,336,0.0,0.0,85,0.00,,---,0.00,VWS V14.01,2013-03-04 09:41:00,
2013-03-04 04:46:00,21.4,17.6,30.11,NNW,336,0.0,0.0,85,0.00,,---,0.00,VWS V14.01,2013-03-04 09:46:00,
2013-03-04 04:51:00,21.3,17.5,30.11,NNW,336,0.0,0.0,85,0.00,,---,0.00,VWS V14.01,2013-03-04 09:51:00,
2013-03-04 04:56:00,21.3,17.5,30.11,NNW,336,0.0,0.0,85,0.00,,---,0.00,VWS V14.01,2013-03-04 09:56:00,
2013-03-04 05:00:00,18.9,15.9,30.13,NNW,336,0.0,0.0,88,0.00,,---,0.00,VWS V14.01,2013-03-04 10:00:00,
2013-03-04 05:01:00,21.3,17.8,30.11,NNW,336,0.0,0.0,86,0.00,,---,0.00,VWS V14.01,2013-03-04 10:01:00,
2013-03-04 05:06:00,21.2,17.4,30.11,NNW,336,0.0,0.0,85,0.00,,---,0.00,VWS V14.01,2013-03-04 10:06:00,
2013-03-04 05:11:00,21.0,17.2,30.11,NNW,336,0.0,0.0,85,0.00,,---,0.00,VWS V14.01,2013-03-04 10:11:00,
2013-03-04 05:16:00,20.8,17.0,30.12,NNW,336,0.0,0.0,85,0.00,,---,0.00,VWS V14.01,2013-03-04 10:16:00,
2013-03-04 05:21:00,20.6,17.1,30.12,NNW,336,0.0,0.0,86,0.00,,---,0.00,VWS V14.01,2013-03-04 10:21:00,
2013-03-04 05:26:00,20.5,17.0,30.12,NNW,336,0.0,0.0,86,0.00,,---,0.00,VWS V14.01,2013-03-04 10:26:00,
2013-03-04 05:30:00,19.5,17.3,30.14,NNW,336,0.0,0.0,91,0.00,,---,0.00,VWS V14.01,2013-03-04 10:30:00,
2013-03-04 05:31:00,20.2,16.7,30.12,NNW,336,0.0,0.0,86,0.00,,---,0.00,VWS V14.01,2013-03-04 10:31:00,
2013-03-04 05:36:00,20.0,16.8,30.12,NNW,336,0.0,0.0,87,0.00,,---,0.00,VWS V14.01,2013-03-04 10:36:00,
2013-03-04 05:41:00,19.7,16.5,30.12,NNW,336,0.0,0.0,87,0.00,,---,0.00,VWS V14.01,2013-03-04 10:41:00,
2013-03-04 05:46:00,19.4,16.2,30.12,NNW,336,0.0,0.0,87,0.00,,---,0.00,VWS V14.01,2013-03-04 10:46:00,
2013-03-04 05:52:00,19.2,16.2,30.13,NNW,336,0.0,0.0,88,0.00,,---,0.00,VWS V14.01,2013-03-04 10:52:00,
2013-03-04 05:57:00,19.0,16.0,30.13,NNW,336,0.0,0.0,88,0.00,,---,0.00,VWS V14.01,2013-03-04 10:57:00,
2013-03-04 06:00:00,20.9,18.7,30.16,NNW,336,0.0,2.0,91,0.00,,---,0.00,VWS V14.01,2013-03-04 11:00:00,
2013-03-04 06:02:00,18.9,16.2,30.13,NNW,336,0.0,0.0,89,0.00,,---,0.00,VWS V14.01,2013-03-04 11:02:00,
2013-03-04 06:07:00,19.0,16.3,30.13,NNW,336,0.0,0.0,89,0.00,,---,0.00,VWS V14.01,2013-03-04 11:07:00,
2013-03-04 06:12:00,19.1,16.7,30.14,NNW,336,0.0,0.0,90,0.00,,---,0.00,VWS V14.01,2013-03-04 11:12:00,
2013-03-04 06:17:00,19.3,16.9,30.14,NNW,336,0.0,0.0,90,0.00,,---,0.00,VWS V14.01,2013-03-04 11:17:00,
2013-03-04 06:22:00,19.4,17.2,30.14,NNW,336,0.0,0.0,91,0.00,,---,0.00,VWS V14.01,2013-03-04 11:22:00,
2013-03-04 06:27:00,19.6,17.4,30.14,NNW,336,0.0,0.0,91,0.00,,---,0.00,VWS V14.01,2013-03-04 11:27:00,
2013-03-04 06:30:00,21.7,19.2,30.16,NNW,336,0.0,2.0,90,0.00,,---,0.00,VWS V14.01,2013-03-04 11:30:00,
2013-03-04 06:32:00,19.7,17.5,30.15,NNW,336,0.0,0.0,91,0.00,,---,0.00,VWS V14.01,2013-03-04 11:32:00,
2013-03-04 06:37:00,20.1,17.9,30.15,NNW,336,0.0,0.0,91,0.00,,---,0.00,VWS V14.01,2013-03-04 11:37:00,
2013-03-04 06:42:00,20.3,18.1,30.15,NNW,336,0.0,0.0,91,0.00,,---,0.00,VWS V14.01,2013-03-04 11:42:00,
2013-03-04 06:47:00,20.5,18.3,30.15,NNW,336,0.0,0.0,91,0.00,,---,0.00,VWS V14.01,2013-03-04 11:47:00,
2013-03-04 06:52:00,20.7,18.8,30.15,NNW,336,0.0,2.0,92,0.00,,---,0.00,VWS V14.01,2013-03-04 11:52:00,
2013-03-04 06:57:00,20.9,18.7,30.16,NNW,336,0.0,2.0,91,0.00,,---,0.00,VWS V14.01,2013-03-04 11:57:00,
2013-03-04 07:00:00,22.4,19.7,30.17,NNW,336,0.0,2.0,89,0.00,,---,0.00,VWS V14.01,2013-03-04 12:00:00,
2013-03-04 07:02:00,21.1,18.9,30.16,NNW,336,0.0,0.0,91,0.00,,---,0.00,VWS V14.01,2013-03-04 12:02:00,
2013-03-04 07:07:00,21.2,19.0,30.16,NNW,336,0.0,1.0,91,0.00,,---,0.00,VWS V14.01,2013-03-04 12:07:00,
2013-03-04 07:12:00,21.4,19.2,30.16,NNW,336,0.0,1.0,91,0.00,,---,0.00,VWS V14.01,2013-03-04 12:12:00,
2013-03-04 07:17:00,21.5,19.3,30.16,NNW,336,0.0,1.0,91,0.00,,---,0.00,VWS V14.01,2013-03-04 12:17:00,
2013-03-04 07:22:00,21.6,19.4,30.16,NNW,336,0.0,1.0,91,0.00,,---,0.00,VWS V14.01,2013-03-04 12:22:00,
2013-03-04 07:27:00,21.7,19.2,30.16,NNW,336,0.0,2.0,90,0.00,,---,0.00,VWS V14.01,2013-03-04 12:27:00,
2013-03-04 07:30:00,23.2,19.9,30.17,NNW,336,1.0,6.0,87,0.00,,---,0.00,VWS V14.01,2013-03-04 12:30:00,
2013-03-04 07:32:00,21.7,19.2,30.16,NNW,336,0.0,0.0,90,0.00,,---,0.00,VWS V14.01,2013-03-04 12:32:00,
2013-03-04 07:37:00,21.7,19.2,30.17,NNW,336,0.0,1.0,90,0.00,,---,0.00,VWS V14.01,2013-03-04 12:37:00,
2013-03-04 07:42:00,21.8,19.3,30.17,NNW,336,0.0,1.0,90,0.00,,---,0.00,VWS V14.01,2013-03-04 12:42:00,
2013-03-04 07:47:00,22.0,19.5,30.17,NNW,336,0.0,2.0,90,0.00,,---,0.00,VWS V14.01,2013-03-04 12:47:00,
2013-03-04 07:52:00,22.2,19.7,30.17,NNW,336,0.0,2.0,90,0.00,,---,0.00,VWS V14.01,2013-03-04 12:52:00,
2013-03-04 07:57:00,22.4,19.7,30.17,NNW,336,0.0,2.0,89,0.00,,---,0.00,VWS V14.01,2013-03-04 12:57:00,
2013-03-04 08:00:00,23.9,20.1,30.17,NNW,336,2.0,7.0,85,0.00,,---,0.00,VWS V14.01,2013-03-04 13:00:00,
2013-03-04 08:02:00,22.6,19.9,30.17,NNW,336,0.0,2.0,89,0.00,,---,0.00,VWS V14.01,2013-03-04 13:02:00,
2013-03-04 08:07:00,22.7,20.0,30.17,NNW,336,0.0,2.0,89,0.00,,---,0.00,VWS V14.01,2013-03-04 13:07:00,
2013-03-04 08:12:00,22.9,20.1,30.17,NNW,336,2.0,2.0,89,0.00,,---,0.00,VWS V14.01,2013-03-04 13:12:00,
2013-03-04 08:17:00,23.0,20.0,30.17,NNW,336,1.0,2.0,88,0.00,,---,0.00,VWS V14.01,2013-03-04 13:17:00,
2013-03-04 08:22:00,23.1,20.1,30.17,NNW,336,0.0,4.0,88,0.00,,---,0.00,VWS V14.01,2013-03-04 13:22:00,
2013-03-04 08:27:00,23.2,19.9,30.17,NNW,336,0.0,1.0,87,0.00,,---,0.00,VWS V14.01,2013-03-04 13:27:00,
2013-03-04 08:30:00,24.9,20.2,30.17,NNW,336,1.0,7.0,82,0.00,,---,0.00,VWS V14.01,2013-03-04 13:30:00,
2013-03-04 08:32:00,23.3,19.7,30.17,NNW,336,1.0,7.0,86,0.00,,---,0.00,VWS V14.01,2013-03-04 13:32:00,
2013-03-04 08:37:00,23.5,19.9,30.17,NNW,336,5.0,7.0,86,0.00,,---,0.00,VWS V14.01,2013-03-04 13:37:00,
2013-03-04 08:42:00,23.5,19.9,30.17,NNW,336,5.0,7.0,86,0.00,,---,0.00,VWS V14.01,2013-03-04 13:42:00,
2013-03-04 08:48:00,23.5,19.7,30.17,NNW,336,2.0,7.0,85,0.00,,---,0.00,VWS V14.01,2013-03-04 13:48:00,
2013-03-04 08:53:00,23.6,19.8,30.17,NNW,336,1.0,7.0,85,0.00,,---,0.00,VWS V14.01,2013-03-04 13:53:00,
2013-03-04 08:58:00,23.9,20.1,30.17,NNW,336,2.0,4.0,85,0.00,,---,0.00,VWS V14.01,2013-03-04 13:58:00,
2013-03-04 09:00:00,26.2,20.6,30.18,NW,325,2.0,6.0,79,0.00,,---,0.00,VWS V14.01,2013-03-04 14:00:00,
2013-03-04 09:03:00,24.2,20.4,30.17,NNW,336,2.0,5.0,85,0.00,,---,0.00,VWS V14.01,2013-03-04 14:03:00,
2013-03-04 09:08:00,24.4,20.0,30.17,NNW,336,4.0,5.0,83,0.00,,---,0.00,VWS V14.01,2013-03-04 14:08:00,
2013-03-04 09:13:00,24.4,20.0,30.17,NNW,336,0.0,5.0,83,0.00,,---,0.00,VWS V14.01,2013-03-04 14:13:00,
2013-03-04 09:18:00,24.7,20.3,30.17,NNW,336,1.0,5.0,83,0.00,,---,0.00,VWS V14.01,2013-03-04 14:18:00,
2013-03-04 09:23:00,24.9,20.5,30.17,NNW,336,0.0,5.0,83,0.00,,---,0.00,VWS V14.01,2013-03-04 14:23:00,
2013-03-04 09:28:00,25.0,20.3,30.18,NNW,336,0.0,1.0,82,0.00,,---,0.00,VWS V14.01,2013-03-04 14:28:00,
2013-03-04 09:30:00,27.0,19.8,30.18,North,8,2.0,7.0,74,0.00,,---,0.00,VWS V14.01,2013-03-04 14:30:00,
2013-03-04 09:33:00,25.2,20.2,30.17,NNW,336,1.0,6.0,81,0.00,,---,0.00,VWS V14.01,2013-03-04 14:33:00,
2013-03-04 09:38:00,25.3,20.3,30.17,NNW,336,0.0,6.0,81,0.00,,---,0.00,VWS V14.01,2013-03-04 14:38:00,
2013-03-04 09:43:00,25.6,20.6,30.17,NNW,335,0.0,6.0,81,0.00,,---,0.00,VWS V14.01,2013-03-04 14:43:00,
2013-03-04 09:48:00,26.1,21.1,30.18,NW,305,0.0,6.0,81,0.00,,---,0.00,VWS V14.01,2013-03-04 14:48:00,
2013-03-04 09:53:00,26.2,20.6,30.18,NW,323,0.0,6.0,79,0.00,,---,0.00,VWS V14.01,2013-03-04 14:53:00,
2013-03-04 09:58:00,26.1,20.5,30.18,NW,323,4.0,7.0,79,0.00,,---,0.00,VWS V14.01,2013-03-04 14:58:00,
2013-03-04 10:00:00,27.0,19.5,30.18,NNW,330,0.0,8.0,73,0.00,,---,0.00,VWS V14.01,2013-03-04 15:00:00,
2013-03-04 10:03:00,25.9,20.3,30.18,WSW,251,1.0,7.0,79,0.00,,---,0.00,VWS V14.01,2013-03-04 15:03:00,
2013-03-04 10:08:00,26.0,19.8,30.18,WSW,244,4.0,7.0,77,0.00,,---,0.00,VWS V14.01,2013-03-04 15:08:00,
2013-03-04 10:13:00,26.2,19.7,30.18,NW,309,2.0,7.0,76,0.00,,---,0.00,VWS V14.01,2013-03-04 15:13:00,
2013-03-04 10:18:00,26.4,19.6,30.18,WSW,244,0.0,7.0,75,0.00,,---,0.00,VWS V14.01,2013-03-04 15:18:00,
2013-03-04 10:23:00,26.8,20.3,30.18,WNW,292,2.0,7.0,76,0.00,,---,0.00,VWS V14.01,2013-03-04 15:23:00,
2013-03-04 10:28:00,27.1,20.2,30.18,North,8,1.0,2.0,75,0.00,,---,0.00,VWS V14.01,2013-03-04 15:28:00,
2013-03-04 10:30:00,28.3,19.5,30.18,WNW,290,4.0,9.0,69,0.01,,---,0.01,VWS V14.01,2013-03-04 15:30:00,
2013-03-04 10:33:00,27.4,20.2,30.18,NW,309,0.0,5.0,74,0.00,,---,0.00,VWS V14.01,2013-03-04 15:33:00,
2013-03-04 10:38:00,27.6,20.4,30.18,NW,309,0.0,5.0,74,0.00,,---,0.00,VWS V14.01,2013-03-04 15:38:00,
2013-03-04 10:43:00,27.9,20.7,30.18,NNW,336,5.0,5.0,74,0.00,,---,0.00,VWS V14.01,2013-03-04 15:43:00,
2013-03-04 10:48:00,27.5,20.0,30.18,NW,308,2.0,8.0,73,0.00,,---,0.00,VWS V14.01,2013-03-04 15:48:00,
2013-03-04 10:53:00,27.4,19.9,30.18,NW,310,2.0,8.0,73,0.00,,---,0.00,VWS V14.01,2013-03-04 15:53:00,
2013-03-04 10:58:00,26.9,19.4,30.18,NNW,330,0.0,1.0,73,0.00,,---,0.00,VWS V14.01,2013-03-04 15:58:00,
2013-03-04 11:00:00,28.8,19.6,30.18,WNW,303,0.0,6.0,68,0.01,,---,0.01,VWS V14.01,2013-03-04 16:00:00,
2013-03-04 11:03:00,26.9,19.7,30.18,NNW,347,4.0,4.0,74,0.00,,---,0.00,VWS V14.01,2013-03-04 16:03:00,
2013-03-04 11:08:00,26.9,19.1,30.18,North,1,3.0,9.0,72,0.00,,---,0.00,VWS V14.01,2013-03-04 16:08:00,
2013-03-04 11:13:00,27.5,19.7,30.18,NW,311,2.0,9.0,72,0.00,,---,0.00,VWS V14.01,2013-03-04 16:13:00,
2013-03-04 11:18:00,27.9,19.7,30.18,NW,325,5.0,9.0,71,0.00,,---,0.00,VWS V14.01,2013-03-04 16:18:00,
2013-03-04 11:23:00,28.1,19.3,30.18,NW,312,2.0,9.0,69,0.01,,---,0.01,VWS V14.01,2013-03-04 16:23:00,
2013-03-04 11:28:00,28.4,19.2,30.18,WNW,299,2.0,4.0,68,0.01,,---,0.01,VWS V14.01,2013-03-04 16:28:00,
2013-03-04 11:30:00,29.4,17.2,30.18,NW,305,0.0,8.0,60,0.01,,---,0.01,VWS V14.01,2013-03-04 16:30:00,
2013-03-04 11:33:00,28.7,19.8,30.18,NE,38,0.0,4.0,69,0.01,,---,0.01,VWS V14.01,2013-03-04 16:33:00,
2013-03-04 11:38:00,28.9,19.7,30.18,West,267,4.0,6.0,68,0.01,,---,0.01,VWS V14.01,2013-03-04 16:38:00,
2013-03-04 11:43:00,28.8,19.6,30.18,NW,309,2.0,6.0,68,0.01,,---,0.01,VWS V14.01,2013-03-04 16:43:00,
2013-03-04 11:48:00,28.5,19.0,30.18,West,259,2.0,6.0,67,0.01,,---,0.01,VWS V14.01,2013-03-04 16:48:00,
2013-03-04 11:53:00,28.7,18.8,30.18,NW,307,0.0,6.0,66,0.01,,---,0.01,VWS V14.01,2013-03-04 16:53:00,
2013-03-04 11:58:00,29.0,19.8,30.18,WSW,253,2.0,4.0,68,0.01,,---,0.01,VWS V14.01,2013-03-04 16:58:00,
2013-03-04 12:00:00,30.7,17.3,30.17,WNW,301,0.0,9.0,57,0.01,,---,0.02,VWS V14.01,2013-03-04 17:00:00,
2013-03-04 12:03:00,29.4,19.1,30.18,WSW,258,0.0,4.0,65,0.01,,---,0.01,VWS V14.01,2013-03-04 17:03:00,
2013-03-04 12:09:00,29.0,18.0,30.18,WSW,242,3.0,7.0,63,0.01,,---,0.01,VWS V14.01,2013-03-04 17:09:00,
2013-03-04 12:14:00,28.9,18.6,30.18,West,269,1.0,8.0,65,0.01,,---,0.01,VWS V14.01,2013-03-04 17:14:00,
2013-03-04 12:19:00,29.2,18.5,30.18,West,266,1.0,8.0,64,0.01,,---,0.01,VWS V14.01,2013-03-04 17:19:00,
2013-03-04 12:24:00,29.5,17.7,30.18,NW,318,5.0,8.0,61,0.01,,---,0.01,VWS V14.01,2013-03-04 17:24:00,
2013-03-04 12:29:00,29.6,18.2,30.17,NW,305,0.0,4.0,62,0.00,,---,0.01,VWS V14.01,2013-03-04 17:29:00,
2013-03-04 12:30:00,31.4,18.4,30.16,NNW,332,0.0,10.0,58,0.01,,---,0.02,VWS V14.01,2013-03-04 17:30:00,
2013-03-04 12:34:00,29.5,17.7,30.17,NNW,331,2.0,9.0,61,0.00,,---,0.01,VWS V14.01,2013-03-04 17:34:00,
2013-03-04 12:39:00,29.4,15.7,30.17,NW,318,4.0,9.0,56,0.01,,---,0.02,VWS V14.01,2013-03-04 17:39:00,
2013-03-04 12:44:00,29.1,16.6,30.17,NNW,343,7.0,9.0,59,0.01,,---,0.02,VWS V14.01,2013-03-04 17:44:00,
2013-03-04 12:49:00,29.4,17.2,30.17,West,279,0.0,9.0,60,0.01,,---,0.02,VWS V14.01,2013-03-04 17:49:00,
2013-03-04 12:54:00,30.4,17.8,30.17,WNW,282,0.0,9.0,59,0.01,,---,0.02,VWS V14.01,2013-03-04 17:54:00,
2013-03-04 12:59:00,30.7,18.1,30.17,SSW,208,3.0,4.0,59,0.01,,---,0.02,VWS V14.01,2013-03-04 17:59:00,
2013-03-04 13:00:00,30.7,19.2,30.15,NW,325,2.0,10.0,62,0.01,,---,0.02,VWS V14.01,2013-03-04 18:00:00,
2013-03-04 13:04:00,30.8,17.8,30.16,West,274,5.0,6.0,58,0.01,,---,0.02,VWS V14.01,2013-03-04 18:04:00,
2013-03-04 13:09:00,30.7,16.9,30.16,NW,319,5.0,6.0,56,0.01,,---,0.02,VWS V14.01,2013-03-04 18:09:00,
2013-03-04 13:14:00,30.6,18.8,30.17,SE,128,0.0,10.0,61,0.01,,---,0.02,VWS V14.01,2013-03-04 18:14:00,
2013-03-04 13:19:00,31.2,19.3,30.16,SW,224,0.0,10.0,61,0.01,,---,0.02,VWS V14.01,2013-03-04 18:19:00,
2013-03-04 13:24:00,31.7,18.6,30.16,NNE,31,1.0,10.0,58,0.01,,---,0.02,VWS V14.01,2013-03-04 18:24:00,
2013-03-04 13:29:00,31.3,18.6,30.15,NNW,334,4.0,6.0,59,0.01,,---,0.02,VWS V14.01,2013-03-04 18:29:00,
2013-03-04 13:30:00,31.3,18.6,30.16,WNW,290,4.0,7.0,59,0.01,,---,0.02,VWS V14.01,2013-03-04 18:30:00,
2013-03-04 13:35:00,30.6,19.1,30.15,WNW,298,2.0,9.0,62,0.01,,---,0.02,VWS V14.01,2013-03-04 18:35:00,
2013-03-04 13:40:00,30.5,18.7,30.15,NW,324,5.0,9.0,61,0.01,,---,0.02,VWS V14.01,2013-03-04 18:40:00,
2013-03-04 13:45:00,30.6,19.9,30.15,WNW,301,1.0,9.0,64,0.01,,---,0.02,VWS V14.01,2013-03-04 18:45:00,
2013-03-04 13:50:00,31.0,19.5,30.15,WNW,295,4.0,9.0,62,0.01,,---,0.02,VWS V14.01,2013-03-04 18:50:00,
2013-03-04 13:55:00,30.6,19.9,30.15,NNW,342,4.0,10.0,64,0.01,,---,0.02,VWS V14.01,2013-03-04 18:55:00,
2013-03-04 14:00:00,30.7,19.2,30.15,West,266,0.0,5.0,62,0.00,,---,0.02,VWS V14.01,2013-03-04 19:00:00,
2013-03-04 14:05:00,30.9,19.8,30.15,WSW,257,1.0,5.0,63,0.00,,---,0.02,VWS V14.01,2013-03-04 19:05:00,
2013-03-04 14:10:00,31.4,19.9,30.15,NW,312,1.0,5.0,62,0.00,,---,0.02,VWS V14.01,2013-03-04 19:10:00,
2013-03-04 14:16:00,31.3,20.5,30.15,SW,234,0.0,6.0,64,0.00,,---,0.02,VWS V14.01,2013-03-04 19:16:00,
2013-03-04 14:21:00,31.4,21.0,30.15,SSW,207,0.0,6.0,65,0.00,,---,0.02,VWS V14.01,2013-03-04 19:21:00,
2013-03-04 14:26:00,31.0,20.6,30.15,SW,216,0.0,11.0,65,0.00,,---,0.02,VWS V14.01,2013-03-04 19:26:00,
2013-03-04 14:30:00,30.7,20.0,30.15,WNW,302,0.0,8.0,64,0.00,,---,0.02,VWS V14.01,2013-03-04 19:30:00,
2013-03-04 14:31:00,30.8,20.4,30.15,NW,315,1.0,7.0,65,0.00,,---,0.02,VWS V14.01,2013-03-04 19:31:00,
2013-03-04 14:36:00,30.6,21.3,30.15,NW,322,1.0,7.0,68,0.00,,---,0.02,VWS V14.01,2013-03-04 19:36:00,
2013-03-04 14:41:00,30.8,20.8,30.15,North,350,2.0,7.0,66,0.00,,---,0.02,VWS V14.01,2013-03-04 19:41:00,
2013-03-04 14:46:00,30.8,19.7,30.15,WNW,294,4.0,7.0,63,0.00,,---,0.02,VWS V14.01,2013-03-04 19:46:00,
2013-03-04 14:51:00,30.8,19.7,30.15,WNW,289,2.0,7.0,63,0.00,,---,0.02,VWS V14.01,2013-03-04 19:51:00,
2013-03-04 14:56:00,30.8,20.1,30.15,NW,317,6.0,8.0,64,0.00,,---,0.02,VWS V14.01,2013-03-04 19:56:00,
2013-03-04 15:00:00,30.5,17.5,30.14,NW,315,1.0,8.0,58,0.00,,---,0.02,VWS V14.01,2013-03-04 20:00:00,
2013-03-04 15:01:00,30.4,19.3,30.15,WNW,284,0.0,5.0,63,0.00,,---,0.02,VWS V14.01,2013-03-04 20:01:00,
2013-03-04 15:06:00,30.4,20.4,30.16,WSW,255,1.0,6.0,66,0.00,,---,0.02,VWS V14.01,2013-03-04 20:06:00,
2013-03-04 15:11:00,30.2,19.1,30.15,WNW,297,4.0,7.0,63,0.00,,---,0.02,VWS V14.01,2013-03-04 20:11:00,
2013-03-04 15:16:00,30.2,19.9,30.15,WNW,298,0.0,7.0,65,0.00,,---,0.02,VWS V14.01,2013-03-04 20:16:00,
2013-03-04 15:21:00,30.3,20.0,30.15,NNW,334,0.0,7.0,65,0.00,,---,0.02,VWS V14.01,2013-03-04 20:21:00,
2013-03-04 15:26:00,30.6,19.9,30.15,NW,320,5.0,8.0,64,0.00,,---,0.02,VWS V14.01,2013-03-04 20:26:00,
2013-03-04 15:30:00,30.6,19.1,30.14,NW,311,0.0,7.0,62,0.00,,---,0.02,VWS V14.01,2013-03-04 20:30:00,
2013-03-04 15:31:00,30.5,19.0,30.14,WNW,302,0.0,2.0,62,0.00,,---,0.02,VWS V14.01,2013-03-04 20:31:00,
2013-03-04 15:36:00,30.5,19.0,30.14,WSW,253,2.0,6.0,62,0.00,,---,0.02,VWS V14.01,2013-03-04 20:36:00,
2013-03-04 15:41:00,30.5,18.3,30.15,SSE,160,2.0,6.0,60,0.00,,---,0.02,VWS V14.01,2013-03-04 20:41:00,
2013-03-04 15:46:00,30.6,18.4,30.14,WNW,293,1.0,6.0,60,0.00,,---,0.02,VWS V14.01,2013-03-04 20:46:00,
2013-03-04 15:51:00,30.7,18.5,30.14,NW,317,4.0,8.0,60,0.00,,---,0.02,VWS V14.01,2013-03-04 20:51:00,
2013-03-04 15:56:00,30.6,18.0,30.14,NW,318,6.0,8.0,59,0.00,,---,0.02,VWS V14.01,2013-03-04 20:56:00,
2013-03-04 16:00:00,30.1,21.2,30.15,NW,319,4.0,6.0,69,0.00,,---,0.02,VWS V14.01,2013-03-04 21:00:00,
2013-03-04 16:01:00,30.5,17.9,30.14,North,349,4.0,6.0,59,0.00,,---,0.02,VWS V14.01,2013-03-04 21:01:00,
2013-03-04 16:06:00,30.5,17.9,30.14,WNW,289,1.0,6.0,59,0.00,,---,0.02,VWS V14.01,2013-03-04 21:06:00,
2013-03-04 16:11:00,30.7,18.1,30.14,NNW,332,6.0,6.0,59,0.00,,---,0.02,VWS V14.01,2013-03-04 21:11:00,
2013-03-04 16:16:00,30.5,18.3,30.15,NNW,327,0.0,7.0,60,0.00,,---,0.02,VWS V14.01,2013-03-04 21:16:00,
2013-03-04 16:21:00,30.6,19.1,30.14,NNW,327,4.0,7.0,62,0.00,,---,0.02,VWS V14.01,2013-03-04 21:21:00,
2013-03-04 16:26:00,30.6,19.5,30.14,NNW,333,2.0,7.0,63,0.00,,---,0.02,VWS V14.01,2013-03-04 21:26:00,
2013-03-04 16:30:00,29.5,17.3,30.15,NNW,334,0.0,6.0,60,0.00,,---,0.02,VWS V14.01,2013-03-04 21:30:00,
2013-03-04 16:31:00,30.5,19.8,30.14,NNW,340,2.0,5.0,64,0.00,,---,0.02,VWS V14.01,2013-03-04 21:31:00,
2013-03-04 16:36:00,30.5,20.1,30.14,NNW,347,0.0,6.0,65,0.00,,---,0.02,VWS V14.01,2013-03-04 21:36:00,
2013-03-04 16:41:00,30.4,20.1,30.14,WNW,299,0.0,6.0,65,0.00,,---,0.02,VWS V14.01,2013-03-04 21:41:00,
2013-03-04 16:46:00,30.3,20.7,30.14,NW,308,2.0,6.0,67,0.00,,---,0.02,VWS V14.01,2013-03-04 21:46:00,
2013-03-04 16:51:00,30.2,20.6,30.15,NW,313,0.0,6.0,67,0.00,,---,0.02,VWS V14.01,2013-03-04 21:51:00,
2013-03-04 16:56:00,30.1,20.8,30.15,NW,313,0.0,6.0,68,0.00,,---,0.02,VWS V14.01,2013-03-04 21:56:00,
2013-03-04 17:00:00,29.0,17.2,30.15,NW,313,0.0,5.0,61,0.00,,---,0.02,VWS V14.01,2013-03-04 22:00:00,
2013-03-04 17:01:00,30.1,20.8,30.15,NW,309,5.0,5.0,68,0.00,,---,0.02,VWS V14.01,2013-03-04 22:01:00,
2013-03-04 17:06:00,29.9,19.9,30.14,NW,321,5.0,6.0,66,0.00,,---,0.02,VWS V14.01,2013-03-04 22:06:00,
2013-03-04 17:11:00,29.8,19.8,30.14,NW,321,2.0,6.0,66,0.00,,---,0.02,VWS V14.01,2013-03-04 22:11:00,
2013-03-04 17:16:00,29.8,19.5,30.15,NNW,334,4.0,6.0,65,0.00,,---,0.02,VWS V14.01,2013-03-04 22:16:00,
2013-03-04 17:21:00,29.7,19.0,30.15,NNW,334,0.0,6.0,64,0.00,,---,0.02,VWS V14.01,2013-03-04 22:21:00,
2013-03-04 17:26:00,29.6,17.8,30.15,NNW,334,4.0,6.0,61,0.00,,---,0.02,VWS V14.01,2013-03-04 22:26:00,
2013-03-04 17:30:00,28.0,18.5,30.15,NNW,331,2.0,4.0,67,0.00,,---,0.02,VWS V14.01,2013-03-04 22:30:00,
2013-03-04 17:31:00,29.4,18.0,30.15,NNW,334,0.0,1.0,62,0.00,,---,0.02,VWS V14.01,2013-03-04 22:31:00,
2013-03-04 17:36:00,29.4,18.0,30.15,NNW,334,2.0,5.0,62,0.00,,---,0.02,VWS V14.01,2013-03-04 22:36:00,
2013-03-04 17:41:00,29.3,17.9,30.15,NNW,336,4.0,5.0,62,0.00,,---,0.02,VWS V14.01,2013-03-04 22:41:00,
2013-03-04 17:46:00,29.2,17.1,30.15,NNW,332,0.0,5.0,60,0.00,,---,0.02,VWS V14.01,2013-03-04 22:46:00,
2013-03-04 17:51:00,29.2,17.1,30.15,NW,311,4.0,5.0,60,0.00,,---,0.02,VWS V14.01,2013-03-04 22:51:00,
2013-03-04 17:57:00,29.0,17.2,30.15,NW,313,0.0,5.0,61,0.00,,---,0.02,VWS V14.01,2013-03-04 22:57:00,
2013-03-04 18:00:00,26.9,19.7,30.15,NW,321,4.0,5.0,74,0.00,,---,0.02,VWS V14.01,2013-03-04 23:00:00,
2013-03-04 18:02:00,28.9,17.5,30.15,NW,313,0.0,4.0,62,0.00,,---,0.02,VWS V14.01,2013-03-04 23:02:00,
2013-03-04 18:07:00,28.7,17.3,30.15,NW,324,0.0,4.0,62,0.00,,---,0.02,VWS V14.01,2013-03-04 23:07:00,
2013-03-04 18:12:00,28.6,18.0,30.15,NW,324,1.0,4.0,64,0.00,,---,0.02,VWS V14.01,2013-03-04 23:12:00,
2013-03-04 18:17:00,28.4,18.1,30.15,NNW,331,0.0,4.0,65,0.00,,---,0.02,VWS V14.01,2013-03-04 23:17:00,
2013-03-04 18:22:00,28.2,18.3,30.15,NNW,331,0.0,4.0,66,0.00,,---,0.02,VWS V14.01,2013-03-04 23:22:00,
2013-03-04 18:27:00,28.1,18.6,30.15,NNW,331,1.0,4.0,67,0.00,,---,0.02,VWS V14.01,2013-03-04 23:27:00,
2013-03-04 18:30:00,26.2,19.7,30.16,NW,321,0.0,4.0,76,0.00,,---,0.02,VWS V14.01,2013-03-04 23:30:00,
2013-03-04 18:32:00,27.9,19.1,30.15,NNW,331,2.0,4.0,69,0.00,,---,0.02,VWS V14.01,2013-03-04 23:32:00,
2013-03-04 18:37:00,27.6,19.1,30.15,NNW,331,0.0,4.0,70,0.00,,---,0.02,VWS V14.01,2013-03-04 23:37:00,
2013-03-04 18:42:00,27.4,19.2,30.15,NNW,331,0.0,5.0,71,0.00,,---,0.02,VWS V14.01,2013-03-04 23:42:00,
2013-03-04 18:47:00,27.2,19.4,30.15,NW,321,1.0,5.0,72,0.00,,---,0.02,VWS V14.01,2013-03-04 23:47:00,
2013-03-04 18:52:00,27.0,19.8,30.15,NW,321,2.0,5.0,74,0.00,,---,0.02,VWS V14.01,2013-03-04 23:52:00,
2013-03-04 18:57:00,26.9,19.7,30.15,NW,321,1.0,5.0,74,0.00,,---,0.02,VWS V14.01,2013-03-04 23:57:00,
2013-03-04 19:00:00,25.5,19.0,30.15,NW,321,0.0,1.0,76,0.00,,---,0.02,VWS V14.01,2013-03-05 00:00:00,
2013-03-04 19:02:00,26.8,20.0,30.15,NW,321,0.0,4.0,75,0.00,,---,0.02,VWS V14.01,2013-03-05 00:02:00,
2013-03-04 19:07:00,26.6,19.8,30.16,NW,321,1.0,4.0,75,0.00,,---,0.02,VWS V14.01,2013-03-05 00:07:00,
2013-03-04 19:12:00,26.5,19.7,30.16,NW,321,0.0,4.0,75,0.00,,---,0.02,VWS V14.01,2013-03-05 00:12:00,
2013-03-04 19:17:00,26.4,19.9,30.16,NW,321,0.0,4.0,76,0.00,,---,0.02,VWS V14.01,2013-03-05 00:17:00,
2013-03-04 19:22:00,26.3,19.8,30.16,NW,321,0.0,4.0,76,0.00,,---,0.02,VWS V14.01,2013-03-05 00:22:00,
2013-03-04 19:27:00,26.2,19.7,30.16,NW,321,0.0,4.0,76,0.00,,---,0.02,VWS V14.01,2013-03-05 00:27:00,
2013-03-04 19:30:00,24.5,18.9,30.15,NW,321,0.0,0.0,79,0.00,,---,0.02,VWS V14.01,2013-03-05 00:30:00,
2013-03-04 19:32:00,26.1,19.6,30.16,NW,321,0.0,1.0,76,0.00,,---,0.02,VWS V14.01,2013-03-05 00:32:00,
2013-03-04 19:37:00,26.0,19.5,30.15,NW,321,0.0,1.0,76,0.00,,---,0.02,VWS V14.01,2013-03-05 00:37:00,
2013-03-04 19:42:00,25.9,19.4,30.15,NW,321,0.0,1.0,76,0.00,,---,0.02,VWS V14.01,2013-03-05 00:42:00,
2013-03-04 19:47:00,25.7,19.2,30.15,NW,321,0.0,1.0,76,0.00,,---,0.02,VWS V14.01,2013-03-05 00:47:00,
2013-03-04 19:52:00,25.6,19.1,30.15,NW,321,0.0,1.0,76,0.00,,---,0.02,VWS V14.01,2013-03-05 00:52:00,
2013-03-04 19:57:00,25.5,19.0,30.15,NW,321,0.0,1.0,76,0.00,,---,0.02,VWS V14.01,2013-03-05 00:57:00,
2013-03-04 20:00:00,23.6,18.6,30.15,NW,321,0.0,0.0,81,0.00,,---,0.02,VWS V14.01,2013-03-05 01:00:00,
2013-03-04 20:02:00,25.4,18.9,30.15,NW,321,0.0,0.0,76,0.00,,---,0.02,VWS V14.01,2013-03-05 01:02:00,
2013-03-04 20:07:00,25.3,18.8,30.15,NW,321,0.0,0.0,76,0.00,,---,0.02,VWS V14.01,2013-03-05 01:07:00,
2013-03-04 20:12:00,25.1,18.9,30.15,NW,321,0.0,0.0,77,0.00,,---,0.02,VWS V14.01,2013-03-05 01:12:00,
2013-03-04 20:17:00,24.9,18.7,30.15,NW,321,0.0,0.0,77,0.00,,---,0.02,VWS V14.01,2013-03-05 01:17:00,
2013-03-04 20:22:00,24.7,18.8,30.15,NW,321,0.0,0.0,78,0.00,,---,0.02,VWS V14.01,2013-03-05 01:22:00,
2013-03-04 20:27:00,24.5,18.9,30.15,NW,321,0.0,0.0,79,0.00,,---,0.02,VWS V14.01,2013-03-05 01:27:00,
2013-03-04 20:30:00,22.8,18.7,30.15,NW,321,0.0,0.0,84,0.00,,---,0.02,VWS V14.01,2013-03-05 01:30:00,
2013-03-04 20:33:00,24.3,18.7,30.15,NW,321,0.0,0.0,79,0.00,,---,0.02,VWS V14.01,2013-03-05 01:33:00,
2013-03-04 20:38:00,24.2,18.6,30.15,NW,321,0.0,0.0,79,0.00,,---,0.02,VWS V14.01,2013-03-05 01:38:00,
2013-03-04 20:43:00,24.0,18.7,30.15,NW,321,0.0,0.0,80,0.00,,---,0.02,VWS V14.01,2013-03-05 01:43:00,
2013-03-04 20:48:00,23.9,18.9,30.15,NW,321,0.0,0.0,81,0.00,,---,0.02,VWS V14.01,2013-03-05 01:48:00,
2013-03-04 20:53:00,23.7,18.7,30.15,NW,321,0.0,0.0,81,0.00,,---,0.02,VWS V14.01,2013-03-05 01:53:00,
2013-03-04 20:58:00,23.6,18.6,30.15,NW,321,0.0,0.0,81,0.00,,---,0.02,VWS V14.01,2013-03-05 01:58:00,
2013-03-04 21:00:00,22.2,18.4,30.15,NW,321,0.0,0.0,85,0.00,,---,0.02,VWS V14.01,2013-03-05 02:00:00,
2013-03-04 21:03:00,23.6,18.6,30.15,NW,321,0.0,0.0,81,0.00,,---,0.02,VWS V14.01,2013-03-05 02:03:00,
2013-03-04 21:08:00,23.6,18.6,30.15,NW,321,0.0,0.0,81,0.00,,---,0.02,VWS V14.01,2013-03-05 02:08:00,
2013-03-04 21:13:00,23.2,18.5,30.15,NW,321,0.0,0.0,82,0.00,,---,0.02,VWS V14.01,2013-03-05 02:13:00,
2013-03-04 21:18:00,23.0,18.6,30.15,NW,321,0.0,0.0,83,0.00,,---,0.02,VWS V14.01,2013-03-05 02:18:00,
2013-03-04 21:23:00,22.9,18.5,30.15,NW,321,0.0,0.0,83,0.00,,---,0.02,VWS V14.01,2013-03-05 02:23:00,
2013-03-04 21:28:00,22.8,18.7,30.15,NW,321,0.0,0.0,84,0.00,,---,0.02,VWS V14.01,2013-03-05 02:28:00,
2013-03-04 21:30:00,21.7,18.2,30.15,NW,321,0.0,0.0,86,0.00,,---,0.02,VWS V14.01,2013-03-05 02:30:00,
2013-03-04 21:33:00,22.6,18.5,30.15,NW,321,0.0,0.0,84,0.00,,---,0.02,VWS V14.01,2013-03-05 02:33:00,
2013-03-04 21:38:00,22.5,18.4,30.15,NW,321,0.0,0.0,84,0.00,,---,0.02,VWS V14.01,2013-03-05 02:38:00,
2013-03-04 21:43:00,22.4,18.3,30.15,NW,321,0.0,0.0,84,0.00,,---,0.02,VWS V14.01,2013-03-05 02:43:00,
2013-03-04 21:48:00,22.4,18.6,30.15,NW,321,0.0,0.0,85,0.00,,---,0.02,VWS V14.01,2013-03-05 02:48:00,
2013-03-04 21:53:00,22.3,20.3,30.15,NW,321,0.0,0.0,92,0.00,,---,0.02,VWS V14.01,2013-03-05 02:53:00,
2013-03-04 21:58:00,22.2,18.4,30.15,NW,321,0.0,0.0,85,0.00,,---,0.02,VWS V14.01,2013-03-05 02:58:00,
2013-03-04 22:00:00,21.3,18.0,30.15,NW,321,0.0,0.0,87,0.00,,---,0.02,VWS V14.01,2013-03-05 03:00:00,
2013-03-04 22:03:00,22.1,18.3,30.15,NW,321,0.0,0.0,85,0.00,,---,0.02,VWS V14.01,2013-03-05 03:03:00,
2013-03-04 22:08:00,22.0,18.2,30.15,NW,321,0.0,0.0,85,0.00,,---,0.02,VWS V14.01,2013-03-05 03:08:00,
2013-03-04 22:13:00,22.0,18.5,30.15,NW,321,0.0,0.0,86,0.00,,---,0.02,VWS V14.01,2013-03-05 03:13:00,
2013-03-04 22:18:00,21.9,18.4,30.15,NW,321,0.0,0.0,86,0.00,,---,0.02,VWS V14.01,2013-03-05 03:18:00,
2013-03-04 22:23:00,21.8,18.3,30.15,NW,321,0.0,0.0,86,0.00,,---,0.02,VWS V14.01,2013-03-05 03:23:00,
2013-03-04 22:28:00,21.7,18.2,30.15,NW,321,0.0,0.0,86,0.00,,---,0.02,VWS V14.01,2013-03-05 03:28:00,
2013-03-04 22:30:00,20.8,17.8,30.15,NW,321,0.0,0.0,88,0.00,,---,0.02,VWS V14.01,2013-03-05 03:30:00,
2013-03-04 22:33:00,21.6,18.1,30.15,NW,321,0.0,0.0,86,0.00,,---,0.02,VWS V14.01,2013-03-05 03:33:00,
2013-03-04 22:38:00,21.5,18.0,30.15,NW,321,0.0,0.0,86,0.00,,---,0.02,VWS V14.01,2013-03-05 03:38:00,
2013-03-04 22:43:00,21.4,17.9,30.15,NW,321,0.0,0.0,86,0.00,,---,0.02,VWS V14.01,2013-03-05 03:43:00,
2013-03-04 22:48:00,21.4,17.9,30.15,NW,321,0.0,0.0,86,0.00,,---,0.02,VWS V14.01,2013-03-05 03:48:00,
2013-03-04 22:53:00,21.3,18.0,30.15,NW,321,0.0,0.0,87,0.00,,---,0.02,VWS V14.01,2013-03-05 03:53:00,
2013-03-04 22:58:00,21.2,17.9,30.15,NW,321,0.0,0.0,87,0.00,,---,0.02,VWS V14.01,2013-03-05 03:58:00,
2013-03-04 23:00:00,20.3,17.3,30.16,NW,321,0.0,0.0,88,0.00,,---,0.02,VWS V14.01,2013-03-05 04:00:00,
2013-03-04 23:03:00,21.1,17.8,30.15,NW,321,0.0,0.0,87,0.00,,---,0.02,VWS V14.01,2013-03-05 04:03:00,
2013-03-04 23:08:00,21.1,17.8,30.15,NW,321,0.0,0.0,87,0.00,,---,0.02,VWS V14.01,2013-03-05 04:08:00,
2013-03-04 23:13:00,21.0,17.8,30.15,NW,321,0.0,0.0,87,0.00,,---,0.02,VWS V14.01,2013-03-05 04:13:00,
2013-03-04 23:18:00,20.9,17.6,30.15,NW,321,0.0,0.0,87,0.00,,---,0.02,VWS V14.01,2013-03-05 04:18:00,
2013-03-04 23:23:00,20.9,17.6,30.15,NW,321,0.0,0.0,87,0.00,,---,0.02,VWS V14.01,2013-03-05 04:23:00,
2013-03-04 23:28:00,20.8,17.8,30.15,NW,321,0.0,0.0,88,0.00,,---,0.02,VWS V14.01,2013-03-05 04:28:00,
2013-03-04 23:30:00,19.7,16.7,30.17,NW,321,0.0,0.0,88,0.00,,---,0.00,VWS V14.01,2013-03-05 04:30:00,
2013-03-04 23:33:00,20.7,17.7,30.15,NW,321,0.0,0.0,88,0.00,,---,0.02,VWS V14.01,2013-03-05 04:33:00,
2013-03-04 23:38:00,20.6,17.6,30.15,NW,321,0.0,0.0,88,0.00,,---,0.02,VWS V14.01,2013-03-05 04:38:00,
2013-03-04 23:43:00,20.5,17.5,30.16,NW,321,0.0,0.0,88,0.00,,---,0.02,VWS V14.01,2013-03-05 04:43:00,
2013-03-04 23:48:00,20.5,17.5,30.16,NW,321,0.0,0.0,88,0.00,,---,0.02,VWS V14.01,2013-03-05 04:48:00,
2013-03-04 23:53:00,20.4,17.4,30.16,NW,321,0.0,0.0,88,0.00,,---,0.02,VWS V14.01,2013-03-05 04:53:00,
2013-03-04 23:58:00,20.3,17.3,30.16,NW,321,0.0,0.0,88,0.00,,---,0.00,VWS V14.01,2013-03-05 04:58:00,